createdAt,value
2022-08-03T00:00:08.770Z,0
2022-08-03T00:01:07.829Z,0
2022-08-03T00:02:12.701Z,0
2022-08-03T00:03:08.169Z,0
2022-08-03T00:04:08.194Z,0
2022-08-03T00:05:08.578Z,0
2022-08-03T00:06:07.558Z,0
2022-08-03T00:07:08.273Z,0
2022-08-03T00:08:08.309Z,0
2022-08-03T00:09:08.210Z,0
2022-08-03T00:10:07.647Z,0
2022-08-03T00:11:08.115Z,0
2022-08-03T00:12:07.461Z,0
2022-08-03T00:13:07.834Z,0
2022-08-03T00:14:07.583Z,0
2022-08-03T00:15:11.218Z,0
2022-08-03T00:16:08.284Z,0
2022-08-03T00:17:07.454Z,0
2022-08-03T00:18:07.700Z,0
2022-08-03T00:19:07.699Z,0
2022-08-03T00:20:07.627Z,0
2022-08-03T00:21:07.718Z,0
2022-08-03T00:22:07.889Z,0
2022-08-03T00:23:08.047Z,0
2022-08-03T00:24:08.239Z,0
2022-08-03T00:25:08.365Z,0
2022-08-03T00:26:07.484Z,0
2022-08-03T00:27:08.255Z,0
2022-08-03T00:28:08.284Z,0
2022-08-03T00:29:07.742Z,0
2022-08-03T00:30:07.964Z,0
2022-08-03T00:31:08.177Z,0
2022-08-03T00:32:07.639Z,0
2022-08-03T00:33:08.369Z,0
2022-08-03T00:34:07.965Z,0
2022-08-03T00:35:10.566Z,0
2022-08-03T00:36:08.412Z,0
2022-08-03T00:37:07.390Z,0
2022-08-03T00:38:08.101Z,0
2022-08-03T00:39:07.988Z,0
2022-08-03T00:40:08.095Z,0
2022-08-03T00:41:12.902Z,0
2022-08-03T00:42:07.725Z,0
2022-08-03T00:43:07.469Z,0
2022-08-03T00:44:07.306Z,0
2022-08-03T00:45:08.024Z,0
2022-08-03T00:46:08.020Z,0.109
2022-08-03T00:47:08.223Z,0
2022-08-03T00:48:29.371Z,0
2022-08-03T00:49:07.775Z,0
2022-08-03T00:50:08.185Z,0
2022-08-03T00:51:08.276Z,0
2022-08-03T00:52:09.559Z,0
2022-08-03T00:53:07.963Z,0
2022-08-03T00:54:07.901Z,0
2022-08-03T00:55:07.943Z,0
2022-08-03T00:56:08.076Z,0
2022-08-03T00:57:07.967Z,0
2022-08-03T00:58:08.159Z,0
2022-08-03T00:59:08.123Z,0
2022-08-03T01:00:08.598Z,0
2022-08-03T01:01:08.389Z,0
2022-08-03T01:02:07.431Z,0.109
2022-08-03T01:03:08.078Z,0
2022-08-03T01:04:08.004Z,0
2022-08-03T01:05:08.229Z,0
2022-08-03T01:06:08.015Z,0
2022-08-03T01:07:10.885Z,0
2022-08-03T01:08:07.233Z,0
2022-08-03T01:09:21.898Z,0.109
2022-08-03T01:10:08.086Z,0
2022-08-03T01:11:08.253Z,0
2022-08-03T01:12:08.338Z,0
2022-08-03T01:13:13.991Z,0
2022-08-03T01:14:18.270Z,0
2022-08-03T01:15:08.183Z,0
2022-08-03T01:16:07.818Z,0.109
2022-08-03T01:17:07.711Z,0.109
2022-08-03T01:18:08.321Z,0
2022-08-03T01:19:08.074Z,0
2022-08-03T01:20:08.053Z,0
2022-08-03T01:21:08.306Z,0
2022-08-03T01:22:07.791Z,0
2022-08-03T01:23:07.957Z,0
2022-08-03T01:24:08.115Z,0
2022-08-03T01:25:08.345Z,0
2022-08-03T01:26:08.169Z,0
2022-08-03T01:27:08.157Z,0
2022-08-03T01:28:07.896Z,0
2022-08-03T01:29:08.019Z,0
2022-08-03T01:30:08.443Z,0
2022-08-03T01:31:08.483Z,0
2022-08-03T01:33:02.225Z,0
2022-08-03T01:33:10.879Z,0
2022-08-03T01:34:08.405Z,0
2022-08-03T01:35:07.804Z,0
2022-08-03T01:36:07.846Z,0
2022-08-03T01:37:08.080Z,0
2022-08-03T01:38:07.935Z,0
2022-08-03T01:39:07.909Z,0
2022-08-03T01:40:08.304Z,0
2022-08-03T01:41:08.010Z,0
2022-08-03T01:42:07.781Z,0
2022-08-03T01:43:08.392Z,0
2022-08-03T01:44:27.918Z,0
2022-08-03T01:45:07.726Z,0
2022-08-03T01:46:07.730Z,0
2022-08-03T01:47:07.696Z,0
2022-08-03T01:48:07.583Z,0
2022-08-03T01:49:09.266Z,0
2022-08-03T01:50:08.428Z,0
2022-08-03T01:51:08.366Z,0
2022-08-03T01:52:08.080Z,0
2022-08-03T01:53:08.132Z,0
2022-08-03T01:54:08.004Z,0
2022-08-03T01:55:08.261Z,0.109
2022-08-03T01:56:08.582Z,0
2022-08-03T01:57:07.437Z,0
2022-08-03T01:58:08.238Z,0
2022-08-03T01:59:08.233Z,0
2022-08-03T02:00:09.264Z,0
2022-08-03T02:01:08.178Z,0
2022-08-03T02:02:28.663Z,0
2022-08-03T02:03:08.402Z,0
2022-08-03T02:04:08.253Z,0
2022-08-03T02:05:10.715Z,0
2022-08-03T02:07:02.557Z,0
2022-08-03T02:07:09.945Z,0
2022-08-03T02:08:08.111Z,0.219
2022-08-03T02:09:07.639Z,0.109
2022-08-03T02:10:08.074Z,0
2022-08-03T02:11:07.775Z,0
2022-08-03T02:12:07.636Z,0
2022-08-03T02:13:07.448Z,0
2022-08-03T02:14:07.961Z,0
2022-08-03T02:15:08.425Z,0
2022-08-03T02:16:08.307Z,0
2022-08-03T02:17:07.837Z,0
2022-08-03T02:18:07.668Z,0
2022-08-03T02:19:08.057Z,0
2022-08-03T02:20:07.980Z,0.109
2022-08-03T02:21:11.105Z,0.109
2022-08-03T02:22:08.131Z,0
2022-08-03T02:23:08.165Z,0
2022-08-03T02:24:08.501Z,0
2022-08-03T02:25:07.909Z,0
2022-08-03T02:26:07.678Z,0.109
2022-08-03T02:27:07.682Z,0.109
2022-08-03T02:28:07.864Z,0.109
2022-08-03T02:29:08.067Z,0
2022-08-03T02:30:08.384Z,0.109
2022-08-03T02:31:08.113Z,0
2022-08-03T02:32:07.890Z,0
2022-08-03T02:33:07.798Z,0
2022-08-03T02:34:07.911Z,0
2022-08-03T02:35:08.027Z,0
2022-08-03T02:36:08.063Z,0.109
2022-08-03T02:37:07.451Z,0.219
2022-08-03T02:38:08.092Z,0.109
2022-08-03T02:39:08.287Z,0.340
2022-08-03T02:40:08.956Z,0.219
2022-08-03T02:41:07.953Z,0.340
2022-08-03T02:42:07.839Z,0.219
2022-08-03T02:43:08.240Z,0.219
2022-08-03T02:44:08.328Z,0.219
2022-08-03T02:45:08.728Z,0.109
2022-08-03T02:46:07.789Z,0.219
2022-08-03T02:47:08.090Z,0.560
2022-08-03T02:48:07.788Z,0
2022-08-03T02:49:42.679Z,0.449
2022-08-03T02:50:07.698Z,0.449
2022-08-03T02:51:07.680Z,0.109
2022-08-03T02:52:07.857Z,0.219
2022-08-03T02:53:08.022Z,0.219
2022-08-03T02:54:07.956Z,0.109
2022-08-03T02:55:08.158Z,0.340
2022-08-03T02:56:08.511Z,0.340
2022-08-03T02:57:08.019Z,0.219
2022-08-03T02:58:08.180Z,0.219
2022-08-03T02:59:08.221Z,0.340
2022-08-03T03:00:09.190Z,0.219
2022-08-03T03:01:08.325Z,0.340
2022-08-03T03:02:08.327Z,0.109
2022-08-03T03:03:08.285Z,0.219
2022-08-03T03:04:08.002Z,0
2022-08-03T03:05:56.074Z,0
2022-08-03T03:06:08.295Z,0
2022-08-03T03:07:08.034Z,0
2022-08-03T03:08:17.662Z,0
2022-08-03T03:09:08.112Z,0
2022-08-03T03:10:08.435Z,0
2022-08-03T03:11:07.524Z,0
2022-08-03T03:12:08.228Z,0
2022-08-03T03:13:07.864Z,0
2022-08-03T03:14:08.748Z,0
2022-08-03T03:15:08.016Z,0
2022-08-03T03:16:08.600Z,0
2022-08-03T03:17:07.770Z,0
2022-08-03T03:18:07.647Z,0
2022-08-03T03:19:07.639Z,0
2022-08-03T03:20:08.218Z,0
2022-08-03T03:21:08.058Z,0
2022-08-03T03:22:07.951Z,0
2022-08-03T03:23:07.951Z,0
2022-08-03T03:24:08.281Z,0.170
2022-08-03T03:25:08.377Z,0.280
2022-08-03T03:26:08.227Z,0.050
2022-08-03T03:27:07.704Z,0
2022-08-03T03:28:08.121Z,0.680
2022-08-03T03:29:08.319Z,0.680
2022-08-03T03:30:08.798Z,0.340
2022-08-03T03:31:08.021Z,0.449
2022-08-03T03:32:09.297Z,1.360
2022-08-03T03:33:07.840Z,1.899
2022-08-03T03:34:08.289Z,1.740
2022-08-03T03:35:08.571Z,2.789
2022-08-03T03:36:07.592Z,3.069
2022-08-03T03:37:07.554Z,4.070
2022-08-03T03:38:08.010Z,5.130
2022-08-03T03:39:15.427Z,6.059
2022-08-03T03:40:08.218Z,7.349
2022-08-03T03:41:07.992Z,8.970
2022-08-03T03:42:27.046Z,10.61
2022-08-03T03:43:08.347Z,12.38
2022-08-03T03:44:07.958Z,14.60
2022-08-03T03:45:08.389Z,17.29
2022-08-03T03:46:07.979Z,20
2022-08-03T03:47:07.908Z,23.20
2022-08-03T03:48:07.599Z,27.10
2022-08-03T03:49:07.831Z,30.89
2022-08-03T03:50:08.045Z,35.20
2022-08-03T03:51:08.044Z,39.79
2022-08-03T03:52:07.758Z,44.79
2022-08-03T03:53:09.266Z,50.40
2022-08-03T03:54:08.411Z,56.29
2022-08-03T03:55:07.991Z,62.70
2022-08-03T03:56:08.351Z,69.59
2022-08-03T03:57:08.864Z,76.69
2022-08-03T03:58:08.405Z,84.80
2022-08-03T03:59:07.736Z,92.40
2022-08-03T04:00:08.608Z,101.5
2022-08-03T04:01:07.810Z,110.1
2022-08-03T04:02:08.193Z,119.6
2022-08-03T04:03:08.392Z,129.1
2022-08-03T04:04:08.399Z,140
2022-08-03T04:05:08.202Z,151
2022-08-03T04:06:08.410Z,162
2022-08-03T04:07:08.215Z,173
2022-08-03T04:08:07.803Z,186
2022-08-03T04:09:08.391Z,200
2022-08-03T04:10:14.709Z,213
2022-08-03T04:11:08.364Z,227
2022-08-03T04:12:07.663Z,241
2022-08-03T04:13:08.123Z,255
2022-08-03T04:14:08.126Z,270
2022-08-03T04:15:08.436Z,284
2022-08-03T04:16:07.735Z,299
2022-08-03T04:17:07.991Z,314
2022-08-03T04:18:08.003Z,329
2022-08-03T04:19:08.240Z,344
2022-08-03T04:20:08.625Z,359
2022-08-03T04:21:07.642Z,374
2022-08-03T04:22:07.767Z,388
2022-08-03T04:23:13.630Z,403
2022-08-03T04:24:07.864Z,417
2022-08-03T04:25:08.512Z,431
2022-08-03T04:26:07.864Z,443
2022-08-03T04:27:08.058Z,456
2022-08-03T04:28:29.713Z,468
2022-08-03T04:29:07.827Z,479
2022-08-03T04:30:08.396Z,488.8
2022-08-03T04:31:08.209Z,497.2
2022-08-03T04:32:08.251Z,504
2022-08-03T04:33:08.536Z,511.5
2022-08-03T04:34:08.732Z,521.0
2022-08-03T04:35:08.313Z,531.0
2022-08-03T04:36:07.685Z,541
2022-08-03T04:37:07.811Z,552
2022-08-03T04:38:08.007Z,567
2022-08-03T04:39:07.618Z,582
2022-08-03T04:40:07.857Z,598
2022-08-03T04:41:07.894Z,611
2022-08-03T04:42:17.047Z,622
2022-08-03T04:43:07.847Z,638
2022-08-03T04:44:08.122Z,659
2022-08-03T04:45:08.559Z,680
2022-08-03T04:46:07.828Z,706
2022-08-03T04:47:07.761Z,733
2022-08-03T04:48:07.822Z,755
2022-08-03T04:49:07.816Z,773
2022-08-03T04:50:12.216Z,793
2022-08-03T04:51:08.391Z,820
2022-08-03T04:52:07.609Z,880
2022-08-03T04:53:07.673Z,950
2022-08-03T04:54:07.906Z,1020
2022-08-03T04:55:08.116Z,1070
2022-08-03T04:56:07.943Z,1000
2022-08-03T04:57:07.625Z,980
2022-08-03T04:58:08.215Z,1050
2022-08-03T04:59:08.398Z,1089
2022-08-03T05:00:09.503Z,1140
2022-08-03T05:01:07.816Z,1210
2022-08-03T05:02:08.155Z,1262
2022-08-03T05:03:20.414Z,1210
2022-08-03T05:04:07.605Z,1196
2022-08-03T05:05:08.122Z,1230
2022-08-03T05:06:11.200Z,1300
2022-08-03T05:07:11.728Z,1500
2022-08-03T05:08:11.172Z,1600
2022-08-03T05:09:07.690Z,1820
2022-08-03T05:10:11.742Z,1845
2022-08-03T05:11:08.000Z,1847
2022-08-03T05:12:08.040Z,1849.
2022-08-03T05:13:07.814Z,1845
2022-08-03T05:14:07.969Z,1790
2022-08-03T05:15:08.207Z,1600
2022-08-03T05:16:07.868Z,1510
2022-08-03T05:17:08.094Z,1510
2022-08-03T05:18:13.397Z,1600
2022-08-03T05:19:08.144Z,1720
2022-08-03T05:20:08.535Z,1500
2022-08-03T05:21:07.682Z,1400
2022-08-03T05:22:08.054Z,1323
2022-08-03T05:23:08.306Z,1360
2022-08-03T05:24:07.682Z,1450
2022-08-03T05:25:08.047Z,1475.
2022-08-03T05:26:08.298Z,1473.
2022-08-03T05:27:07.538Z,1477.
2022-08-03T05:28:08.482Z,1484.
2022-08-03T05:29:08.720Z,1488.
2022-08-03T05:30:29.663Z,1461
2022-08-03T05:31:12.579Z,1493
2022-08-03T05:32:08.560Z,1503.
2022-08-03T05:33:08.311Z,1512
2022-08-03T05:34:08.431Z,1521.
2022-08-03T05:36:03.020Z,1515
2022-08-03T05:36:10.890Z,1540
2022-08-03T05:37:09.147Z,1572
2022-08-03T05:38:09.222Z,1584
2022-08-03T05:39:07.954Z,1602
2022-08-03T05:40:08.473Z,1624
2022-08-03T05:41:22.724Z,1632.
2022-08-03T05:42:08.353Z,1620
2022-08-03T05:43:07.897Z,1585
2022-08-03T05:44:07.919Z,1620
2022-08-03T05:45:08.308Z,1683
2022-08-03T05:46:12.815Z,1700
2022-08-03T05:47:07.542Z,1800
2022-08-03T05:48:07.474Z,1864
2022-08-03T05:49:08.223Z,1890
2022-08-03T05:50:08.665Z,1930
2022-08-03T05:51:08.091Z,1960
2022-08-03T05:52:13.093Z,1994
2022-08-03T05:53:08.231Z,2013
2022-08-03T05:54:07.935Z,2022.
2022-08-03T05:55:08.017Z,2033.
2022-08-03T05:56:13.942Z,2040.
2022-08-03T05:57:07.908Z,2040
2022-08-03T05:58:07.722Z,1800
2022-08-03T05:59:35.765Z,2000
2022-08-03T06:00:08.952Z,2105.
2022-08-03T06:01:08.308Z,2109
2022-08-03T06:02:07.858Z,2120
2022-08-03T06:03:08.230Z,2132
2022-08-03T06:04:08.655Z,2142.
2022-08-03T06:05:08.365Z,2151
2022-08-03T06:06:07.869Z,2161.
2022-08-03T06:07:08.329Z,2170
2022-08-03T06:08:07.481Z,2181
2022-08-03T06:09:08.046Z,2194
2022-08-03T06:10:37.165Z,2205
2022-08-03T06:11:08.530Z,2218
2022-08-03T06:12:11.194Z,2234
2022-08-03T06:13:08.096Z,2251
2022-08-03T06:14:07.994Z,2268
2022-08-03T06:15:08.161Z,2283
2022-08-03T06:16:08.104Z,2298
2022-08-03T06:17:08.044Z,2308.
2022-08-03T06:18:08.466Z,2315.
2022-08-03T06:19:08.114Z,2200
2022-08-03T06:20:08.698Z,2000
2022-08-03T06:21:14.978Z,2100
2022-08-03T06:22:08.219Z,2000
2022-08-03T06:23:08.029Z,2519
2022-08-03T06:24:08.633Z,2547
2022-08-03T06:25:11.301Z,2576
2022-08-03T06:26:07.942Z,2600
2022-08-03T06:27:08.408Z,2640
2022-08-03T06:28:15.022Z,2675
2022-08-03T06:29:08.621Z,2704
2022-08-03T06:30:08.854Z,2727
2022-08-03T06:31:08.533Z,2743
2022-08-03T06:32:08.043Z,2762
2022-08-03T06:33:08.445Z,2778
2022-08-03T06:34:32.543Z,2782.
2022-08-03T06:35:08.094Z,2783.
2022-08-03T06:36:08.407Z,2778.
2022-08-03T06:37:07.912Z,2775.
2022-08-03T06:38:08.582Z,2770.
2022-08-03T06:39:08.373Z,2767
2022-08-03T06:40:08.553Z,2759.
2022-08-03T06:41:07.581Z,2758.
2022-08-03T06:42:07.478Z,2753.
2022-08-03T06:43:12.335Z,2742.
2022-08-03T06:44:07.958Z,2600
2022-08-03T06:45:08.358Z,2700
2022-08-03T06:46:08.132Z,2700
2022-08-03T06:47:08.580Z,2760.
2022-08-03T06:48:08.164Z,2761.
2022-08-03T06:49:08.474Z,2740
2022-08-03T06:50:17.141Z,2760
2022-08-03T06:51:07.939Z,2784
2022-08-03T06:52:08.526Z,2750
2022-08-03T06:53:08.207Z,2770
2022-08-03T06:54:08.214Z,2807
2022-08-03T06:55:08.854Z,2798
2022-08-03T06:56:07.898Z,2850
2022-08-03T06:57:08.431Z,2890
2022-08-03T06:58:07.863Z,2934
2022-08-03T06:59:08.456Z,2961
2022-08-03T07:00:12.131Z,2983
2022-08-03T07:01:08.148Z,3004
2022-08-03T07:02:08.109Z,3022
2022-08-03T07:03:08.478Z,3039
2022-08-03T07:04:07.988Z,3049
2022-08-03T07:05:08.830Z,3070
2022-08-03T07:06:08.602Z,3101
2022-08-03T07:07:08.437Z,3124
2022-08-03T07:08:08.117Z,3155
2022-08-03T07:09:09.022Z,3178
2022-08-03T07:10:07.775Z,3201
2022-08-03T07:11:07.993Z,3220
2022-08-03T07:12:07.944Z,3260
2022-08-03T07:13:08.182Z,3297
2022-08-03T07:14:08.333Z,3330
2022-08-03T07:15:08.808Z,3370
2022-08-03T07:16:07.708Z,3400
2022-08-03T07:17:11.784Z,3450
2022-08-03T07:18:07.806Z,3478
2022-08-03T07:19:07.904Z,3510
2022-08-03T07:20:08.137Z,3590
2022-08-03T07:21:08.563Z,3655
2022-08-03T07:22:07.756Z,3647
2022-08-03T07:23:08.057Z,3628
2022-08-03T07:24:07.863Z,3650
2022-08-03T07:25:08.486Z,3680
2022-08-03T07:26:08.366Z,3740
2022-08-03T07:27:08.233Z,3810
2022-08-03T07:28:08.684Z,3850
2022-08-03T07:29:15.141Z,3870
2022-08-03T07:30:08.329Z,3900
2022-08-03T07:31:08.333Z,4000
2022-08-03T07:32:08.270Z,4100
2022-08-03T07:33:08.483Z,4300
2022-08-03T07:34:07.860Z,4400
2022-08-03T07:35:08.753Z,4600
2022-08-03T07:36:08.041Z,4800
2022-08-03T07:37:08.221Z,4000
2022-08-03T07:38:08.439Z,4200
2022-08-03T07:39:16.676Z,4130
2022-08-03T07:40:08.393Z,4150
2022-08-03T07:41:08.326Z,4220
2022-08-03T07:42:08.208Z,4330
2022-08-03T07:43:08.270Z,4339
2022-08-03T07:44:08.472Z,4324.
2022-08-03T07:45:09.074Z,4315
2022-08-03T07:46:11.433Z,4280
2022-08-03T07:47:22.233Z,4263
2022-08-03T07:48:12.815Z,4253.
2022-08-03T07:49:11.524Z,4248
2022-08-03T07:50:11.497Z,4254.
2022-08-03T07:51:11.283Z,4262
2022-08-03T07:52:08.325Z,4274
2022-08-03T07:53:08.209Z,4295
2022-08-03T07:54:08.500Z,4320
2022-08-03T07:55:08.220Z,4370
2022-08-03T07:56:11.371Z,4400
2022-08-03T07:57:08.206Z,4570
2022-08-03T07:58:08.408Z,4610
2022-08-03T07:59:08.433Z,4627
2022-08-03T08:00:08.390Z,4660
2022-08-03T08:01:08.951Z,4670
2022-08-03T08:02:07.693Z,4660
2022-08-03T08:03:08.591Z,4682
2022-08-03T08:04:07.966Z,4730
2022-08-03T08:05:08.713Z,4800
